createdAt,value
2018-06-17T00:00:01.118Z,3.60
2018-06-17T00:02:31.494Z,3.47
2018-06-17T00:05:01.870Z,3.40
2018-06-17T00:07:33.039Z,3.50
2018-06-17T00:10:03.418Z,3.77
2018-06-17T00:12:33.790Z,3.10
2018-06-17T00:15:04.187Z,3.70
2018-06-17T00:17:34.561Z,3.80
2018-06-17T00:20:12.114Z,3.03
2018-06-17T00:22:43.188Z,3.47
2018-06-17T00:25:13.558Z,3.37
2018-06-17T00:27:43.900Z,3.67
2018-06-17T00:30:15.029Z,3.50
2018-06-17T00:32:45.387Z,3.57
2018-06-17T00:35:15.780Z,3.33
2018-06-17T00:37:46.342Z,3.90
2018-06-17T00:40:16.725Z,3.27
2018-06-17T00:42:48.150Z,3.53
2018-06-17T00:45:22.631Z,3.93
2018-06-17T00:47:53.810Z,4.07
2018-06-17T00:50:24.127Z,3.63
2018-06-17T00:52:56.558Z,3.13
2018-06-17T00:55:27.701Z,3.30
2018-06-17T00:57:58.027Z,3.33
2018-06-17T01:00:28.417Z,3.40
2018-06-17T01:02:58.835Z,3.07
2018-06-17T01:05:31.266Z,3.23
2018-06-17T01:08:02.684Z,3.33
2018-06-17T01:10:33.089Z,3.50
2018-06-17T01:13:08.578Z,3.77
2018-06-17T01:15:38.977Z,3.90
2018-06-17T01:18:11.389Z,3.80
2018-06-17T01:20:42.547Z,3.63
2018-06-17T01:23:13.723Z,3.87
2018-06-17T01:25:44.106Z,3.43
2018-06-17T01:28:15.252Z,3.63
2018-06-17T01:30:45.654Z,3.40
2018-06-17T01:33:16.035Z,3.50
2018-06-17T01:35:46.401Z,3.23
2018-06-17T01:38:16.748Z,3.90
2018-06-17T01:40:47.122Z,4.13
2018-06-17T01:43:17.505Z,3.53
2018-06-17T01:45:48.679Z,3.50
2018-06-17T01:48:19.055Z,3.40
2018-06-17T01:50:49.431Z,3.30
2018-06-17T01:53:19.833Z,3.60
2018-06-17T01:55:50.977Z,3.73
2018-06-17T01:58:21.361Z,3.70
2018-06-17T02:00:53.805Z,3.97
2018-06-17T02:03:24.190Z,3.57
2018-06-17T02:05:54.586Z,3.67
2018-06-17T02:08:27.022Z,3.67
2018-06-17T02:10:57.402Z,3.60
2018-06-17T02:13:27.790Z,3.80
2018-06-17T02:15:58.895Z,3.57
2018-06-17T02:18:29.462Z,3.20
2018-06-17T02:20:59.860Z,3.23
2018-06-17T02:23:30.270Z,3.53
2018-06-17T02:26:00.702Z,3.30
2018-06-17T02:28:31.742Z,3.30
2018-06-17T02:31:02.130Z,3.80
2018-06-17T02:33:32.506Z,3.23
2018-06-17T02:36:03.596Z,3.30
2018-06-17T02:38:34.966Z,3.40
2018-06-17T02:41:25.736Z,3.57
2018-06-17T02:43:56.147Z,2.93
2018-06-17T02:46:29.408Z,3.37
2018-06-17T02:48:59.790Z,3.37
2018-06-17T02:51:31.204Z,3.30
2018-06-17T02:54:05.373Z,2.70
2018-06-17T02:56:35.771Z,3.67
2018-06-17T02:59:06.155Z,3.07
2018-06-17T03:01:36.548Z,3.00
2018-06-17T03:04:06.967Z,3.00
2018-06-17T03:06:39.398Z,3.07
2018-06-17T03:09:10.543Z,2.90
2018-06-17T03:11:40.953Z,3.37
2018-06-17T03:14:11.340Z,3.20
2018-06-17T03:16:41.740Z,2.90
2018-06-17T03:19:12.153Z,3.17
2018-06-17T03:21:43.298Z,2.97
2018-06-17T03:24:14.443Z,3.43
2018-06-17T03:29:52.755Z,3.40
2018-06-17T03:32:23.153Z,3.57
2018-06-17T03:34:55.568Z,3.60
2018-06-17T03:37:25.926Z,3.30
2018-06-17T03:39:56.320Z,3.67
2018-06-17T03:42:26.695Z,3.33
2018-06-17T03:45:01.195Z,4.33
2018-06-17T03:47:31.563Z,3.17
2018-06-17T03:50:03.136Z,3.00
2018-06-17T03:52:33.530Z,3.13
2018-06-17T03:55:24.034Z,2.77
2018-06-17T03:58:00.564Z,2.87
2018-06-17T04:00:30.945Z,3.33
2018-06-17T04:03:03.355Z,3.10
2018-06-17T04:05:34.508Z,2.73
2018-06-17T04:08:04.889Z,2.60
2018-06-17T04:10:35.250Z,3.17
2018-06-17T04:13:05.587Z,3.40
2018-06-17T04:15:36.716Z,3.07
2018-06-17T04:18:07.844Z,3.17
2018-06-17T04:20:38.240Z,2.83
2018-06-17T04:23:08.611Z,2.43
2018-06-17T04:25:39.780Z,2.60
2018-06-17T04:28:10.914Z,2.50
2018-06-17T04:30:42.055Z,3.13
2018-06-17T04:33:13.193Z,2.53
2018-06-17T04:35:44.356Z,2.80
2018-06-17T04:38:14.730Z,3.00
2018-06-17T04:40:47.146Z,3.00
2018-06-17T04:43:18.317Z,3.13
2018-06-17T04:45:48.634Z,2.57
2018-06-17T04:48:19.012Z,2.87
2018-06-17T04:50:49.411Z,2.63
2018-06-17T04:53:19.784Z,2.50
2018-06-17T04:55:50.934Z,2.67
2018-06-17T04:58:22.114Z,3.30
2018-06-17T05:00:55.555Z,2.57
2018-06-17T05:03:25.964Z,2.80
2018-06-17T05:05:56.346Z,2.40
2018-06-17T05:08:26.735Z,2.33
2018-06-17T05:10:57.109Z,2.47
2018-06-17T05:13:27.504Z,2.50
2018-06-17T05:15:58.650Z,2.80
2018-06-17T05:18:28.970Z,2.50
2018-06-17T05:20:59.358Z,2.60
2018-06-17T05:23:50.121Z,3.00
2018-06-17T05:26:20.529Z,3.10
2018-06-17T05:28:51.673Z,2.70
2018-06-17T05:31:22.805Z,2.70
2018-06-17T05:33:53.269Z,2.70
2018-06-17T05:36:23.588Z,2.53
2018-06-17T05:38:53.908Z,2.50
2018-06-17T05:41:25.083Z,2.70
2018-06-17T05:43:57.526Z,2.90
2018-06-17T05:46:27.923Z,2.73
2018-06-17T05:48:58.338Z,2.53
2018-06-17T05:51:28.739Z,2.23
2018-06-17T05:53:59.119Z,2.83
2018-06-17T05:56:30.291Z,2.87
2018-06-17T05:59:00.871Z,2.70
2018-06-17T06:01:31.254Z,2.80
2018-06-17T06:04:01.709Z,2.87
2018-06-17T06:06:32.077Z,2.47
2018-06-17T06:09:03.219Z,3.33
2018-06-17T06:11:34.442Z,2.87
2018-06-17T06:14:04.948Z,2.63
2018-06-17T06:16:35.204Z,2.87
2018-06-17T06:19:05.616Z,2.70
2018-06-17T06:21:36.006Z,2.87
2018-06-17T06:24:06.396Z,2.73
2018-06-17T06:26:37.571Z,2.40
2018-06-17T06:29:07.899Z,2.87
2018-06-17T06:31:38.299Z,3.03
2018-06-17T06:34:09.669Z,3.13
2018-06-17T06:36:40.057Z,2.17
2018-06-17T06:39:10.444Z,2.77
2018-06-17T06:41:44.961Z,3.20
2018-06-17T06:44:17.408Z,3.20
2018-06-17T06:46:48.552Z,2.53
2018-06-17T06:49:19.670Z,2.83
2018-06-17T06:51:50.067Z,3.07
2018-06-17T06:54:21.814Z,2.77
2018-06-17T06:56:52.223Z,2.93
2018-06-17T06:59:22.595Z,2.63
2018-06-17T07:06:03.538Z,2.13
2018-06-17T07:09:27.947Z,3.65
2018-06-17T07:11:59.295Z,3.67
2018-06-17T07:14:31.603Z,2.80
2018-06-17T07:17:31.505Z,2.70
2018-06-17T07:20:03.936Z,2.40
2018-06-17T07:22:34.351Z,2.40
2018-06-17T07:25:05.556Z,2.43
2018-06-17T07:27:43.744Z,2.70
2018-06-17T07:30:14.173Z,3.20
2018-06-17T07:32:44.615Z,2.40
2018-06-17T07:35:23.448Z,2.33
2018-06-17T07:37:53.822Z,3.47
2018-06-17T07:40:24.145Z,2.50
2018-06-17T07:42:54.553Z,2.90
2018-06-17T07:45:24.927Z,2.60
2018-06-17T07:47:55.307Z,2.47
2018-06-17T07:53:42.709Z,3.23
2018-06-17T07:56:13.113Z,3.33
2018-06-17T07:58:43.504Z,2.77
2018-06-17T08:01:13.883Z,3.10
2018-06-17T08:03:44.299Z,3.10
2018-06-17T08:06:14.687Z,3.63
2018-06-17T08:08:45.061Z,4.03
2018-06-17T08:11:15.410Z,5.87
2018-06-17T08:13:46.807Z,4.60
2018-06-17T08:16:17.180Z,2.90
2018-06-17T08:18:49.579Z,3.60
2018-06-17T08:21:19.956Z,3.23
2018-06-17T08:23:50.338Z,4.03
2018-06-17T08:26:20.736Z,2.47
2018-06-17T08:28:58.270Z,2.17
2018-06-17T08:31:37.188Z,2.87
2018-06-17T08:34:07.559Z,2.17
2018-06-17T08:36:53.891Z,2.10
2018-06-17T08:39:29.414Z,1.90
2018-06-17T08:41:59.826Z,2.50
2018-06-17T08:44:30.216Z,1.53
2018-06-17T08:47:00.588Z,1.93
2018-06-17T08:49:37.762Z,2.40
2018-06-17T08:52:09.077Z,2.20
2018-06-17T08:54:39.459Z,1.90
2018-06-17T08:57:09.802Z,1.87
2018-06-17T08:59:42.216Z,1.80
2018-06-17T09:02:13.349Z,2.10
2018-06-17T09:04:43.733Z,1.80
2018-06-17T09:07:18.212Z,1.93
2018-06-17T09:09:49.380Z,2.47
2018-06-17T09:12:19.824Z,1.77
2018-06-17T09:14:50.142Z,1.80
2018-06-17T09:17:20.545Z,2.37
2018-06-17T09:19:50.925Z,2.77
2018-06-17T09:22:23.252Z,2.17
2018-06-17T09:24:53.653Z,2.13
2018-06-17T09:27:25.020Z,2.07
2018-06-17T09:29:56.172Z,2.47
2018-06-17T09:32:26.561Z,2.30
2018-06-17T09:35:04.909Z,1.90
2018-06-17T09:37:35.309Z,2.40
2018-06-17T09:40:05.692Z,5.70
2018-06-17T09:42:40.168Z,3.40
2018-06-17T09:45:11.269Z,3.03
2018-06-17T09:47:48.964Z,2.30
2018-06-17T09:50:38.744Z,2.63
2018-06-17T09:53:11.162Z,3.40
2018-06-17T09:55:42.288Z,2.70
2018-06-17T09:58:12.733Z,2.60
2018-06-17T10:00:43.872Z,2.40
2018-06-17T10:03:14.262Z,2.63
2018-06-17T10:05:44.669Z,2.60
2018-06-17T10:08:15.054Z,2.17
2018-06-17T10:10:45.442Z,2.73
2018-06-17T10:13:15.837Z,2.23
2018-06-17T10:15:46.205Z,2.97
2018-06-17T10:18:40.466Z,2.80
2018-06-17T10:21:12.887Z,2.37
2018-06-17T10:23:43.218Z,2.77
2018-06-17T10:26:13.617Z,2.67
2018-06-17T10:28:44.001Z,2.80
2018-06-17T10:31:37.951Z,2.40
2018-06-17T10:34:09.031Z,2.73
2018-06-17T10:36:39.343Z,2.57
2018-06-17T10:39:09.742Z,2.70
2018-06-17T10:41:42.158Z,2.50
2018-06-17T10:44:13.271Z,3.07
2018-06-17T10:46:43.673Z,3.40
2018-06-17T10:49:14.055Z,2.63
2018-06-17T10:51:44.439Z,2.43
2018-06-17T10:54:14.772Z,4.00
2018-06-17T10:56:45.915Z,4.03
2018-06-17T10:59:19.775Z,4.30
2018-06-17T11:01:50.349Z,3.58
2018-06-17T11:04:20.733Z,3.90
2018-06-17T11:06:53.889Z,4.97
2018-06-17T11:09:25.029Z,4.23
2018-06-17T11:11:56.381Z,3.87
2018-06-17T11:14:30.256Z,3.40
2018-06-17T11:17:03.703Z,5.93
2018-06-17T11:19:51.588Z,4.30
2018-06-17T11:22:21.978Z,3.50
2018-06-17T11:24:54.335Z,3.30
2018-06-17T11:27:24.728Z,3.07
2018-06-17T11:29:55.100Z,2.60
2018-06-17T11:32:26.509Z,3.30
2018-06-17T11:34:57.667Z,3.43
2018-06-17T11:37:28.811Z,3.80
2018-06-17T11:39:59.956Z,5.17
2018-06-17T11:45:22.729Z,4.80
2018-06-17T11:47:53.130Z,4.13
2018-06-17T11:50:23.509Z,3.90
2018-06-17T11:53:00.328Z,5.03
2018-06-17T11:55:30.706Z,4.00
2018-06-17T11:58:01.084Z,3.90
2018-06-17T12:00:31.502Z,3.37
2018-06-17T12:03:01.825Z,3.30
2018-06-17T12:05:32.202Z,3.47
2018-06-17T12:08:05.470Z,2.97
2018-06-17T12:10:36.606Z,2.87
2018-06-17T12:13:07.001Z,3.50
2018-06-17T12:15:37.413Z,2.87
2018-06-17T12:18:15.905Z,3.13
2018-06-17T12:20:46.304Z,2.97
2018-06-17T12:23:17.379Z,2.70
2018-06-17T12:25:47.768Z,2.70
2018-06-17T12:28:18.163Z,2.43
2018-06-17T12:31:12.816Z,2.80
2018-06-17T12:33:43.221Z,3.03
2018-06-17T12:36:14.363Z,3.07
2018-06-17T12:38:45.710Z,2.80
2018-06-17T12:41:18.143Z,2.63
2018-06-17T12:44:11.170Z,2.70
2018-06-17T12:46:44.042Z,2.97
2018-06-17T12:49:17.856Z,2.90
2018-06-17T12:51:48.246Z,3.10
2018-06-17T12:54:21.595Z,2.70
2018-06-17T12:56:54.641Z,3.27
2018-06-17T12:59:25.019Z,3.00
2018-06-17T13:01:58.393Z,2.83
2018-06-17T13:04:28.779Z,2.57
2018-06-17T13:06:59.163Z,2.50
2018-06-17T13:09:29.568Z,2.90
2018-06-17T13:11:59.946Z,3.50
2018-06-17T13:14:30.329Z,2.93
2018-06-17T13:17:00.731Z,2.60
2018-06-17T13:19:32.136Z,2.83
2018-06-17T13:22:05.478Z,3.30
2018-06-17T13:24:36.650Z,2.47
2018-06-17T13:27:10.035Z,3.27
2018-06-17T13:29:41.259Z,3.40
2018-06-17T13:32:14.295Z,2.80
2018-06-17T13:34:44.608Z,3.13
2018-06-17T13:37:14.984Z,3.00
2018-06-17T13:40:00.398Z,3.30
2018-06-17T13:42:31.529Z,2.87
2018-06-17T13:45:02.723Z,2.80
2018-06-17T13:47:34.028Z,2.43
2018-06-17T13:50:06.185Z,3.23
2018-06-17T13:52:36.493Z,2.90
2018-06-17T13:55:06.826Z,2.60
2018-06-17T13:57:37.203Z,2.87
2018-06-17T14:00:07.691Z,2.60
2018-06-17T14:02:38.096Z,3.07
2018-06-17T14:05:08.479Z,2.50
2018-06-17T14:07:38.872Z,2.63
2018-06-17T14:10:10.009Z,2.80
2018-06-17T14:12:40.398Z,2.77
2018-06-17T14:15:10.775Z,2.60
2018-06-17T14:17:41.174Z,2.90
2018-06-17T14:20:11.554Z,3.00
2018-06-17T14:22:41.926Z,3.10
2018-06-17T14:25:12.341Z,2.77
2018-06-17T14:27:42.724Z,2.80
2018-06-17T14:30:13.851Z,2.90
2018-06-17T14:32:45.024Z,2.93
2018-06-17T14:35:15.413Z,2.83
2018-06-17T14:37:45.783Z,2.70
2018-06-17T14:40:16.194Z,2.67
2018-06-17T14:42:47.346Z,2.87
2018-06-17T14:45:23.253Z,2.83
2018-06-17T14:50:47.993Z,2.60
2018-06-17T14:53:21.600Z,3.10
2018-06-17T14:55:51.974Z,2.83
2018-06-17T14:58:31.552Z,2.80
2018-06-17T15:01:01.929Z,2.40
2018-06-17T15:03:33.227Z,3.17
2018-06-17T15:06:03.552Z,2.60
2018-06-17T15:08:34.001Z,2.70
2018-06-17T15:11:04.345Z,3.00
2018-06-17T15:13:34.773Z,2.67
2018-06-17T15:16:05.113Z,2.20
2018-06-17T15:18:36.512Z,2.80
2018-06-17T15:21:06.911Z,2.70
2018-06-17T15:23:43.176Z,2.80
2018-06-17T15:26:19.296Z,2.50
2018-06-17T15:28:49.681Z,2.87
2018-06-17T15:31:20.075Z,2.60
2018-06-17T15:33:54.163Z,2.83
2018-06-17T15:36:42.441Z,3.17
2018-06-17T15:39:13.654Z,3.00
2018-06-17T15:41:46.710Z,2.67
2018-06-17T15:44:17.099Z,2.70
2018-06-17T15:46:52.610Z,2.77
2018-06-17T15:49:22.918Z,2.57
2018-06-17T15:51:54.057Z,2.57
2018-06-17T15:54:26.250Z,2.67
2018-06-17T15:56:56.657Z,2.70
2018-06-17T15:59:27.740Z,3.20
2018-06-17T16:01:58.150Z,2.50
2018-06-17T16:04:28.531Z,2.80
2018-06-17T16:06:58.905Z,2.43
2018-06-17T16:09:29.310Z,3.10
2018-06-17T16:12:01.488Z,2.90
2018-06-17T16:14:46.495Z,3.13
2018-06-17T16:17:16.920Z,3.10
2018-06-17T16:19:50.036Z,3.00
2018-06-17T16:22:20.443Z,3.10
2018-06-17T16:24:50.818Z,3.00
2018-06-17T16:27:21.896Z,2.87
2018-06-17T16:29:52.300Z,2.70
2018-06-17T16:32:22.687Z,3.03
2018-06-17T16:34:53.071Z,3.03
2018-06-17T16:37:23.456Z,2.63
2018-06-17T16:39:54.607Z,2.83
2018-06-17T16:42:26.007Z,2.50
2018-06-17T16:45:03.516Z,2.67
2018-06-17T16:47:33.894Z,2.57
2018-06-17T16:50:04.268Z,2.73
2018-06-17T16:52:34.607Z,2.60
2018-06-17T16:55:04.984Z,3.07
2018-06-17T16:57:53.116Z,2.77
2018-06-17T17:00:24.254Z,2.90
2018-06-17T17:02:55.407Z,2.60
2018-06-17T17:05:25.946Z,2.63
2018-06-17T17:07:56.271Z,2.67
2018-06-17T17:10:26.634Z,2.50
2018-06-17T17:12:59.450Z,2.47
2018-06-17T17:15:33.358Z,2.90
2018-06-17T17:18:04.517Z,2.70
2018-06-17T17:20:34.900Z,2.70
2018-06-17T17:23:05.282Z,2.57
2018-06-17T17:25:35.684Z,2.53
2018-06-17T17:28:06.828Z,2.63
2018-06-17T17:30:37.204Z,2.70
2018-06-17T17:33:26.540Z,2.53
2018-06-17T17:35:56.970Z,3.50
2018-06-17T17:38:27.303Z,3.17
2018-06-17T17:40:57.646Z,4.07
2018-06-17T17:43:31.085Z,3.50
2018-06-17T17:46:01.474Z,3.63
2018-06-17T17:48:35.960Z,3.10
2018-06-17T17:51:07.110Z,3.37
2018-06-17T17:53:37.488Z,3.57
2018-06-17T17:56:10.767Z,3.47
2018-06-17T18:01:47.682Z,3.00
2018-06-17T18:04:18.014Z,2.83
2018-06-17T18:06:48.390Z,2.90
2018-06-17T18:09:21.415Z,2.90
2018-06-17T18:11:51.782Z,2.53
2018-06-17T18:14:22.924Z,2.60
2018-06-17T18:16:54.095Z,2.70
2018-06-17T18:19:26.431Z,2.63
2018-06-17T18:21:56.751Z,3.00
2018-06-17T18:24:27.156Z,3.03
2018-06-17T18:27:12.764Z,2.70
2018-06-17T18:29:49.030Z,2.97
2018-06-17T18:32:19.341Z,2.67
2018-06-17T18:34:58.791Z,2.87
2018-06-17T18:37:29.181Z,2.80
2018-06-17T18:40:06.831Z,2.57
2018-06-17T18:42:37.978Z,2.97
2018-06-17T18:45:09.114Z,2.30
2018-06-17T18:47:40.288Z,2.43
2018-06-17T18:50:10.671Z,2.67
2018-06-17T18:52:41.080Z,2.60
2018-06-17T18:55:11.521Z,3.33
2018-06-17T18:57:42.086Z,3.00
2018-06-17T19:00:13.253Z,3.27
2018-06-17T19:02:43.762Z,3.20
2018-06-17T19:05:14.313Z,2.80
2018-06-17T19:07:44.685Z,2.90
2018-06-17T19:10:17.845Z,2.57
2018-06-17T19:12:54.317Z,3.17
2018-06-17T19:15:27.955Z,2.70
2018-06-17T19:18:04.171Z,3.00
2018-06-17T19:20:34.570Z,2.83
2018-06-17T19:23:04.941Z,2.87
2018-06-17T19:25:35.323Z,2.90
2018-06-17T19:28:05.663Z,2.80
2018-06-17T19:30:36.039Z,3.20
2018-06-17T19:33:07.442Z,2.93
2018-06-17T19:35:37.841Z,2.63
2018-06-17T19:38:08.984Z,2.90
2018-06-17T19:40:41.104Z,2.50
2018-06-17T19:43:11.526Z,3.20
2018-06-17T19:45:49.059Z,2.83
2018-06-17T19:48:25.050Z,2.57
2018-06-17T19:51:13.402Z,2.90
2018-06-17T19:54:01.626Z,2.40
2018-06-17T19:56:32.764Z,2.80
2018-06-17T19:59:09.127Z,3.60
2018-06-17T20:01:39.499Z,2.87
2018-06-17T20:04:15.016Z,2.30
2018-06-17T20:06:46.157Z,2.87
2018-06-17T20:09:16.474Z,2.40
2018-06-17T20:11:47.646Z,2.70
2018-06-17T20:14:18.021Z,2.60
2018-06-17T20:16:48.397Z,2.77
2018-06-17T20:19:18.798Z,2.63
2018-06-17T20:21:49.178Z,2.80
2018-06-17T20:24:20.584Z,2.90
2018-06-17T20:26:50.967Z,2.80
2018-06-17T20:29:21.344Z,2.70
2018-06-17T20:31:51.725Z,2.87
2018-06-17T20:34:27.942Z,2.57
2018-06-17T20:36:58.322Z,2.67
2018-06-17T20:39:28.686Z,2.83
2018-06-17T20:41:59.853Z,2.70
2018-06-17T20:44:33.298Z,2.90
2018-06-17T20:47:05.357Z,2.87
2018-06-17T20:49:35.478Z,2.77
2018-06-17T20:52:05.843Z,2.83
2018-06-17T20:54:36.214Z,2.50
2018-06-17T20:57:06.619Z,2.67
2018-06-17T20:59:38.976Z,2.67
2018-06-17T21:02:09.290Z,2.53
2018-06-17T21:04:40.498Z,2.33
2018-06-17T21:07:10.834Z,2.67
2018-06-17T21:09:41.211Z,2.70
2018-06-17T21:12:12.297Z,2.80
2018-06-17T21:14:42.685Z,2.27
2018-06-17T21:17:19.250Z,2.47
2018-06-17T21:22:34.584Z,2.60
2018-06-17T21:25:14.230Z,2.13
2018-06-17T21:27:44.629Z,2.70
2018-06-17T21:30:17.894Z,2.90
2018-06-17T21:32:48.269Z,2.60
2018-06-17T21:35:18.601Z,2.60
2018-06-17T21:37:48.984Z,2.97
2018-06-17T21:40:19.358Z,2.50
2018-06-17T21:42:49.768Z,2.53
2018-06-17T21:45:20.149Z,2.20
2018-06-17T21:47:50.521Z,2.83
2018-06-17T21:50:21.109Z,2.60
2018-06-17T21:52:51.482Z,3.10
2018-06-17T21:55:21.862Z,2.50
2018-06-17T21:57:52.454Z,2.57
2018-06-17T22:00:22.830Z,2.43
2018-06-17T22:02:54.225Z,2.10
2018-06-17T22:05:24.622Z,2.30
2018-06-17T22:08:00.106Z,2.97
2018-06-17T22:10:48.562Z,3.10
2018-06-17T22:13:19.696Z,3.10
2018-06-17T22:16:01.747Z,2.70
2018-06-17T22:18:32.107Z,2.90
2018-06-17T22:21:02.491Z,2.63
2018-06-17T22:23:32.893Z,2.90
2018-06-17T22:26:04.032Z,2.50
2018-06-17T22:28:37.214Z,2.70
2018-06-17T22:31:07.617Z,3.00
2018-06-17T22:33:37.991Z,2.70
2018-06-17T22:36:08.369Z,3.07
2018-06-17T22:38:38.770Z,2.20
2018-06-17T22:41:09.134Z,2.57
2018-06-17T22:43:39.506Z,2.70
2018-06-17T22:46:09.905Z,2.87
2018-06-17T22:48:41.048Z,2.47
2018-06-17T22:51:12.076Z,2.80
2018-06-17T22:54:30.003Z,3.00
2018-06-17T22:57:00.386Z,2.90
2018-06-17T23:02:27.498Z,2.93
2018-06-17T23:04:57.881Z,2.87
2018-06-17T23:07:50.812Z,2.87
2018-06-17T23:10:21.985Z,2.93
2018-06-17T23:12:53.318Z,3.13
2018-06-17T23:15:23.889Z,3.13
2018-06-17T23:18:01.089Z,2.57
2018-06-17T23:20:31.467Z,2.97
2018-06-17T23:23:01.837Z,3.13
2018-06-17T23:25:32.243Z,2.90
2018-06-17T23:28:04.651Z,2.83
2018-06-17T23:30:35.061Z,2.87
2018-06-17T23:33:05.424Z,2.97
2018-06-17T23:35:35.788Z,2.57
2018-06-17T23:38:06.880Z,3.30
2018-06-17T23:40:37.293Z,3.03
2018-06-17T23:43:07.668Z,3.30
2018-06-17T23:45:38.803Z,3.10
2018-06-17T23:48:18.920Z,3.30
2018-06-17T23:50:51.838Z,2.93
2018-06-17T23:53:29.157Z,3.13
2018-06-17T23:56:02.233Z,3.50
2018-06-17T23:58:32.604Z,3.20
